Airfield :
LOGIN :

Register | Disclaimer

   EN    FR    IT 

 










Legend :    VFR   Marginal VFR   IFR   Intensive IFR   Very Intensive IFR
Visi :
Ceiling :
>= 8 km
>= 3000ft
5 to 8 km
1000 to 3000 ft
1500m to 5 km
500 to 1000 ft
800 to 1500m
200 to 500 ft
< 800m
< 200 ft
Symbols :   Thunderstorms  Fog  Heavy snow  Heavy precipitations  Wind > 20 kt
SIGMETs :     Misc.  Thunderstorms  Icing  Turbulence  Mountain Waves  Volcanic Ashes







- Airport Elevation : 935 ft


EBFS - Florennes

CURRENT METAR :
  • 181725Z 18008KT 9999 FEW100 SCT220 09/01 Q1016 BLU BLU

EXPIRED METARs :
  • 181655Z 18006KT 9999 FEW100 SCT200 10/01 Q1016 BLU BLU
  • 181625Z 18008KT 9999 FEW100 SCT200 11/01 Q1016 BLU BLU
  • 181555Z 18008KT 9999 FEW100 SCT200 12/01 Q1016 BLU BLU
  • 181525Z 18009KT 9999 SCT200 12/00 Q1016 BLU BLU
  • 181455Z 18009KT 9999 SCT200 13/00 Q1016 BLU BLU

TAF TAF EBFS
Valid from the 18 at 13:00 until the 18 at 22:00 UTC


181141Z 1813/1822 18010G20KT 9999 SCT200
BECMG 1816/1818 20010G20KT BKN200
No reported NOTAMs for that airfield.



MET'MAP, your aeronautical weather chart ! - Copyright ORBIFLY December 2007 - Disclaimer

ORBIFLY MET'MAP TEAM :

Programming & Development : Alexandra Zaïnal
Concept & Development : Baudouin d'Aumeries
Co-Development & Prog : Marc-Olivier Méhu
Technical & hardware support : Manuel Goepfert

Contact : metmap@orbifly.com




SOURCES & CREDITS :

   NOAA